sensor_id;sensor_type;location;lat;lon;timestamp;pressure;altitude;pressure_sealevel;temperature;humidity
71195;BME280;58908;51.426;7.714;2023-01-10T00:02:06;99324.59;;;5.02;100.00
71195;BME280;58908;51.426;7.714;2023-01-10T00:04:32;99330.69;;;5.03;100.00
71195;BME280;58908;51.426;7.714;2023-01-10T00:06:58;99332.25;;;5.07;100.00
71195;BME280;58908;51.426;7.714;2023-01-10T00:09:25;99347.03;;;5.08;100.00
71195;BME280;58908;51.426;7.714;2023-01-10T00:11:52;99346.97;;;5.09;100.00
71195;BME280;58908;51.426;7.714;2023-01-10T00:14:36;99356.50;;;5.10;100.00
71195;BME280;58908;51.426;7.714;2023-01-10T00:17:03;99357.38;;;5.11;100.00
71195;BME280;58908;51.426;7.714;2023-01-10T00:19:29;99356.50;;;5.10;100.00
71195;BME280;58908;51.426;7.714;2023-01-10T00:21:56;99360.03;;;5.09;100.00
71195;BME280;58908;51.426;7.714;2023-01-10T00:24:29;99369.56;;;5.10;100.00
71195;BME280;58908;51.426;7.714;2023-01-10T00:26:57;99366.97;;;5.10;100.00
71195;BME280;58908;51.426;7.714;2023-01-10T00:29:24;99380.91;;;5.11;100.00
71195;BME280;58908;51.426;7.714;2023-01-10T00:31:51;99379.91;;;5.13;100.00
71195;BME280;58908;51.426;7.714;2023-01-10T00:34:18;99386.00;;;5.14;100.00
71195;BME280;58908;51.426;7.714;2023-01-10T00:36:44;99403.38;;;5.15;100.00
71195;BME280;58908;51.426;7.714;2023-01-10T00:39:11;99406.81;;;5.15;100.00
71195;BME280;58908;51.426;7.714;2023-01-10T00:41:38;99407.63;;;5.17;100.00
71195;BME280;58908;51.426;7.714;2023-01-10T00:44:24;99414.63;;;5.17;100.00
71195;BME280;58908;51.426;7.714;2023-01-10T00:46:50;99418.09;;;5.17;100.00
71195;BME280;58908;51.426;7.714;2023-01-10T00:49:16;99430.25;;;5.18;100.00
71195;BME280;58908;51.426;7.714;2023-01-10T00:51:43;99430.25;;;5.18;100.00
71195;BME280;58908;51.426;7.714;2023-01-10T00:54:09;99434.66;;;5.16;100.00
71195;BME280;58908;51.426;7.714;2023-01-10T00:56:36;99438.13;;;5.17;100.00
71195;BME280;58908;51.426;7.714;2023-01-10T00:59:03;99448.66;;;5.15;100.00
71195;BME280;58908;51.426;7.714;2023-01-10T01:01:30;99452.97;;;5.16;100.00
71195;BME280;58908;51.426;7.714;2023-01-10T01:03:57;99445.97;;;5.17;100.00
71195;BME280;58908;51.426;7.714;2023-01-10T01:06:23;99451.25;;;5.15;100.00
71195;BME280;58908;51.426;7.714;2023-01-10T01:08:50;99453.97;;;5.14;100.00
71195;BME280;58908;51.426;7.714;2023-01-10T01:11:16;99465.31;;;5.13;100.00
71195;BME280;58908;51.426;7.714;2023-01-10T01:13:42;99463.53;;;5.13;100.00
71195;BME280;58908;51.426;7.714;2023-01-10T01:16:08;99471.41;;;5.13;100.00
71195;BME280;58908;51.426;7.714;2023-01-10T01:18:36;99479.22;;;5.13;100.00
71195;BME280;58908;51.426;7.714;2023-01-10T01:21:03;99482.75;;;5.12;100.00
71195;BME280;58908;51.426;7.714;2023-01-10T01:23:29;99487.16;;;5.12;100.00
71195;BME280;58908;51.426;7.714;2023-01-10T01:25:58;99488.78;;;5.14;100.00
71195;BME280;58908;51.426;7.714;2023-01-10T01:28:24;99493.16;;;5.14;100.00
71195;BME280;58908;51.426;7.714;2023-01-10T01:30:50;99506.16;;;5.15;100.00
71195;BME280;58908;51.426;7.714;2023-01-10T01:33:17;99511.34;;;5.17;100.00
71195;BME280;58908;51.426;7.714;2023-01-10T01:35:45;99514.88;;;5.16;100.00
71195;BME280;58908;51.426;7.714;2023-01-10T01:38:12;99516.53;;;5.18;100.00
71195;BME280;58908;51.426;7.714;2023-01-10T01:40:38;99524.41;;;5.17;100.00
71195;BME280;58908;51.426;7.714;2023-01-10T01:43:08;99524.53;;;5.14;100.00
71195;BME280;58908;51.426;7.714;2023-01-10T01:45:44;99533.16;;;5.16;100.00
71195;BME280;58908;51.426;7.714;2023-01-10T01:48:14;99539.22;;;5.16;100.00
71195;BME280;58908;51.426;7.714;2023-01-10T01:50:42;99545.38;;;5.15;100.00
71195;BME280;58908;51.426;7.714;2023-01-10T01:53:14;99550.69;;;5.14;100.00
71195;BME280;58908;51.426;7.714;2023-01-10T01:55:42;99548.06;;;5.14;100.00
71195;BME280;58908;51.426;7.714;2023-01-10T01:58:10;99554.91;;;5.16;100.00
71195;BME280;58908;51.426;7.714;2023-01-10T02:00:38;99556.75;;;5.14;100.00
71195;BME280;58908;51.426;7.714;2023-01-10T02:03:05;99557.75;;;5.12;100.00
71195;BME280;58908;51.426;7.714;2023-01-10T02:05:31;99554.25;;;5.11;100.00
71195;BME280;58908;51.426;7.714;2023-01-10T02:07:59;99555.22;;;5.09;100.00
71195;BME280;58908;51.426;7.714;2023-01-10T02:10:28;99561.38;;;5.08;100.00
71195;BME280;58908;51.426;7.714;2023-01-10T02:12:57;99564.16;;;5.03;100.00
71195;BME280;58908;51.426;7.714;2023-01-10T02:15:26;99566.72;;;5.05;100.00
71195;BME280;58908;51.426;7.714;2023-01-10T02:17:52;99565.84;;;5.04;100.00
71195;BME280;58908;51.426;7.714;2023-01-10T02:20:19;99578.91;;;5.04;100.00
71195;BME280;58908;51.426;7.714;2023-01-10T02:22:52;99578.09;;;5.04;100.00
71195;BME280;58908;51.426;7.714;2023-01-10T02:25:44;99579.94;;;5.00;100.00
71195;BME280;58908;51.426;7.714;2023-01-10T02:28:24;99575.63;;;4.99;100.00
71195;BME280;58908;51.426;7.714;2023-01-10T02:30:59;99586.09;;;4.99;100.00
71195;BME280;58908;51.426;7.714;2023-01-10T02:33:35;99591.19;;;5.02;100.00
71195;BME280;58908;51.426;7.714;2023-01-10T02:36:09;99587.75;;;5.02;100.00
71195;BME280;58908;51.426;7.714;2023-01-10T02:38:43;99591.31;;;4.99;100.00
71195;BME280;58908;51.426;7.714;2023-01-10T02:41:12;99589.50;;;5.01;100.00
71195;BME280;58908;51.426;7.714;2023-01-10T02:43:41;99589.56;;;5.00;100.00
71195;BME280;58908;51.426;7.714;2023-01-10T02:46:12;99590.44;;;4.99;100.00
71195;BME280;58908;51.426;7.714;2023-01-10T02:48:41;99596.66;;;4.96;100.00
71195;BME280;58908;51.426;7.714;2023-01-10T02:51:08;99595.75;;;4.97;100.00
71195;BME280;58908;51.426;7.714;2023-01-10T02:53:40;99594.84;;;4.98;100.00
71195;BME280;58908;51.426;7.714;2023-01-10T02:56:12;99592.34;;;4.95;100.00
71195;BME280;58908;51.426;7.714;2023-01-10T02:58:44;99600.19;;;4.95;100.00
71195;BME280;58908;51.426;7.714;2023-01-10T03:01:15;99594.16;;;4.93;100.00
71195;BME280;58908;51.426;7.714;2023-01-10T03:03:46;99602.00;;;4.93;100.00
71195;BME280;58908;51.426;7.714;2023-01-10T03:06:17;99601.44;;;4.85;100.00
71195;BME280;58908;51.426;7.714;2023-01-10T03:08:48;99607.00;;;4.76;100.00
71195;BME280;58908;51.426;7.714;2023-01-10T03:11:15;99614.25;;;4.68;100.00
71195;BME280;58908;51.426;7.714;2023-01-10T03:14:02;99620.44;;;4.66;100.00
71195;BME280;58908;51.426;7.714;2023-01-10T03:16:29;99623.78;;;4.69;100.00
71195;BME280;58908;51.426;7.714;2023-01-10T03:18:59;99633.25;;;4.73;100.00
71195;BME280;58908;51.426;7.714;2023-01-10T03:21:28;99634.03;;;4.75;100.00
71195;BME280;58908;51.426;7.714;2023-01-10T03:23:55;99643.53;;;4.78;100.00
71195;BME280;58908;51.426;7.714;2023-01-10T03:26:24;99641.78;;;4.77;100.00
71195;BME280;58908;51.426;7.714;2023-01-10T03:28:54;99640.22;;;4.73;100.00
71195;BME280;58908;51.426;7.714;2023-01-10T03:31:23;99646.31;;;4.73;100.00
71195;BME280;58908;51.426;7.714;2023-01-10T03:33:51;99651.72;;;4.67;100.00
71195;BME280;58908;51.426;7.714;2023-01-10T03:36:27;99653.59;;;4.64;100.00
71195;BME280;58908;51.426;7.714;2023-01-10T03:38:56;99666.75;;;4.61;100.00
71195;BME280;58908;51.426;7.714;2023-01-10T03:41:25;99668.78;;;4.53;100.00
71195;BME280;58908;51.426;7.714;2023-01-10T03:43:59;99668.22;;;4.45;100.00
71195;BME280;58908;51.426;7.714;2023-01-10T03:46:48;99684.88;;;4.41;100.00
71195;BME280;58908;51.426;7.714;2023-01-10T03:49:16;99690.19;;;4.38;100.00
71195;BME280;58908;51.426;7.714;2023-01-10T03:51:44;99700.84;;;4.32;100.00
71195;BME280;58908;51.426;7.714;2023-01-10T03:54:11;99700.03;;;4.30;100.00
71195;BME280;58908;51.426;7.714;2023-01-10T03:56:43;99706.91;;;4.33;100.00
71195;BME280;58908;51.426;7.714;2023-01-10T03:59:10;99709.31;;;4.39;100.00
71195;BME280;58908;51.426;7.714;2023-01-10T04:01:36;99709.09;;;4.46;100.00
71195;BME280;58908;51.426;7.714;2023-01-10T04:04:03;99706.13;;;4.55;100.00
71195;BME280;58908;51.426;7.714;2023-01-10T04:06:29;99707.94;;;4.53;100.00
71195;BME280;58908;51.426;7.714;2023-01-10T04:08:56;99714.81;;;4.57;100.00
71195;BME280;58908;51.426;7.714;2023-01-10T04:11:23;99721.72;;;4.58;100.00
71195;BME280;58908;51.426;7.714;2023-01-10T04:13:49;99726.84;;;4.61;100.00
71195;BME280;58908;51.426;7.714;2023-01-10T04:16:15;99723.16;;;4.66;100.00
71195;BME280;58908;51.426;7.714;2023-01-10T04:18:41;99728.28;;;4.69;100.00
71195;BME280;58908;51.426;7.714;2023-01-10T04:21:08;99731.69;;;4.71;100.00
71195;BME280;58908;51.426;7.714;2023-01-10T04:23:34;99742.09;;;4.73;100.00
71195;BME280;58908;51.426;7.714;2023-01-10T04:26:01;99741.31;;;4.71;100.00
71195;BME280;58908;51.426;7.714;2023-01-10T04:28:28;99742.22;;;4.70;100.00
71195;BME280;58908;51.426;7.714;2023-01-10T04:30:54;99746.69;;;4.66;100.00
71195;BME280;58908;51.426;7.714;2023-01-10T04:33:20;99748.69;;;4.58;100.00
71195;BME280;58908;51.426;7.714;2023-01-10T04:35:46;99752.34;;;4.53;100.00
71195;BME280;58908;51.426;7.714;2023-01-10T04:38:13;99749.88;;;4.49;100.00
71195;BME280;58908;51.426;7.714;2023-01-10T04:40:39;99761.31;;;4.46;100.00
71195;BME280;58908;51.426;7.714;2023-01-10T04:43:07;99764.66;;;4.50;100.00
71195;BME280;58908;51.426;7.714;2023-01-10T04:45:33;99762.88;;;4.52;100.00
71195;BME280;58908;51.426;7.714;2023-01-10T04:47:59;99766.22;;;4.55;100.00
71195;BME280;58908;51.426;7.714;2023-01-10T04:50:26;99760.25;;;4.52;100.00
71195;BME280;58908;51.426;7.714;2023-01-10T04:52:52;99764.75;;;4.47;100.00
71195;BME280;58908;51.426;7.714;2023-01-10T04:55:19;99764.88;;;4.44;100.00
71195;BME280;58908;51.426;7.714;2023-01-10T04:57:45;99759.84;;;4.38;100.00
71195;BME280;58908;51.426;7.714;2023-01-10T05:00:13;99765.19;;;4.33;100.00
71195;BME280;58908;51.426;7.714;2023-01-10T05:02:39;99758.38;;;4.29;100.00
71195;BME280;58908;51.426;7.714;2023-01-10T05:05:08;99763.72;;;4.26;100.00
71195;BME280;58908;51.426;7.714;2023-01-10T05:07:34;99760.03;;;4.32;100.00
71195;BME280;58908;51.426;7.714;2023-01-10T05:10:00;99758.34;;;4.31;100.00
71195;BME280;58908;51.426;7.714;2023-01-10T05:12:26;99768.72;;;4.32;100.00
71195;BME280;58908;51.426;7.714;2023-01-10T05:14:53;99765.19;;;4.33;100.00
71195;BME280;58908;51.426;7.714;2023-01-10T05:17:20;99770.34;;;4.36;100.00
71195;BME280;58908;51.426;7.714;2023-01-10T05:19:46;99765.16;;;4.35;100.00
71195;BME280;58908;51.426;7.714;2023-01-10T05:22:13;99773.88;;;4.35;100.00
71195;BME280;58908;51.426;7.714;2023-01-10T05:24:39;99766.81;;;4.37;100.00
71195;BME280;58908;51.426;7.714;2023-01-10T05:27:05;99771.91;;;4.42;100.00
71195;BME280;58908;51.426;7.714;2023-01-10T05:29:32;99782.22;;;4.46;100.00
71195;BME280;58908;51.426;7.714;2023-01-10T05:31:58;99783.84;;;4.49;100.00
71195;BME280;58908;51.426;7.714;2023-01-10T05:34:26;99789.78;;;4.54;100.00
71195;BME280;58908;51.426;7.714;2023-01-10T05:36:52;99800.94;;;4.58;100.00
71195;BME280;58908;51.426;7.714;2023-01-10T05:39:18;99800.63;;;4.67;100.00
71195;BME280;58908;51.426;7.714;2023-01-10T05:41:45;99803.25;;;4.67;100.00
71195;BME280;58908;51.426;7.714;2023-01-10T05:44:11;99807.66;;;4.65;100.00
71195;BME280;58908;51.426;7.714;2023-01-10T05:46:37;99813.91;;;4.62;100.00
71195;BME280;58908;51.426;7.714;2023-01-10T05:49:04;99811.19;;;4.64;100.00
71195;BME280;58908;51.426;7.714;2023-01-10T05:51:31;99814.59;;;4.66;100.00
71195;BME280;58908;51.426;7.714;2023-01-10T05:53:58;99819.72;;;4.69;100.00
71195;BME280;58908;51.426;7.714;2023-01-10T05:56:24;99817.97;;;4.70;100.00
71195;BME280;58908;51.426;7.714;2023-01-10T05:58:50;99821.41;;;4.70;100.00
71195;BME280;58908;51.426;7.714;2023-01-10T06:01:17;99827.47;;;4.72;100.00
71195;BME280;58908;51.426;7.714;2023-01-10T06:03:43;99831.84;;;4.72;100.00
71195;BME280;58908;51.426;7.714;2023-01-10T06:06:09;99834.47;;;4.70;100.00
71195;BME280;58908;51.426;7.714;2023-01-10T06:08:37;99842.28;;;4.72;100.00
71195;BME280;58908;51.426;7.714;2023-01-10T06:11:03;99837.97;;;4.71;100.00
71195;BME280;58908;51.426;7.714;2023-01-10T06:13:29;99843.19;;;4.71;100.00
71195;BME280;58908;51.426;7.714;2023-01-10T06:15:56;99845.91;;;4.68;100.00
71195;BME280;58908;51.426;7.714;2023-01-10T06:18:22;99849.34;;;4.68;100.00
71195;BME280;58908;51.426;7.714;2023-01-10T06:20:48;99859.78;;;4.70;100.00
71195;BME280;58908;51.426;7.714;2023-01-10T06:23:15;99849.44;;;4.67;100.00
71195;BME280;58908;51.426;7.714;2023-01-10T06:25:42;99851.97;;;4.68;100.00
71195;BME280;58908;51.426;7.714;2023-01-10T06:28:10;99860.56;;;4.72;100.00
71195;BME280;58908;51.426;7.714;2023-01-10T06:30:37;99858.91;;;4.69;100.00
71195;BME280;58908;51.426;7.714;2023-01-10T06:33:05;99859.72;;;4.71;100.00
71195;BME280;58908;51.426;7.714;2023-01-10T06:35:32;99871.00;;;4.73;100.00
71195;BME280;58908;51.426;7.714;2023-01-10T06:37:58;99877.97;;;4.73;100.00
71195;BME280;58908;51.426;7.714;2023-01-10T06:40:25;99871.72;;;4.77;100.00
71195;BME280;58908;51.426;7.714;2023-01-10T06:42:52;99881.34;;;4.76;100.00
71195;BME280;58908;51.426;7.714;2023-01-10T06:45:19;99888.22;;;4.79;100.00
71195;BME280;58908;51.426;7.714;2023-01-10T06:47:45;99902.13;;;4.79;100.00
71195;BME280;58908;51.426;7.714;2023-01-10T06:50:12;99908.25;;;4.78;100.00
71195;BME280;58908;51.426;7.714;2023-01-10T06:52:38;99917.88;;;4.78;100.00
71195;BME280;58908;51.426;7.714;2023-01-10T06:55:05;99927.31;;;4.82;100.00
71195;BME280;58908;51.426;7.714;2023-01-10T06:57:31;99927.22;;;4.85;100.00
71195;BME280;58908;51.426;7.714;2023-01-10T07:00:00;99920.25;;;4.85;100.00
71195;BME280;58908;51.426;7.714;2023-01-10T07:02:27;99915.06;;;4.84;100.00
71195;BME280;58908;51.426;7.714;2023-01-10T07:04:53;99915.06;;;4.84;100.00
71195;BME280;58908;51.426;7.714;2023-01-10T07:07:19;99918.56;;;4.83;100.00
71195;BME280;58908;51.426;7.714;2023-01-10T07:09:46;99935.13;;;4.83;100.00
71195;BME280;58908;51.426;7.714;2023-01-10T07:12:12;99939.44;;;4.84;100.00
71195;BME280;58908;51.426;7.714;2023-01-10T07:14:38;99951.63;;;4.84;100.00
71195;BME280;58908;51.426;7.714;2023-01-10T07:17:06;99968.22;;;4.83;100.00
71195;BME280;58908;51.426;7.714;2023-01-10T07:19:32;99947.28;;;4.84;100.00
71195;BME280;58908;51.426;7.714;2023-01-10T07:21:58;99951.63;;;4.84;100.00
71195;BME280;58908;51.426;7.714;2023-01-10T07:24:24;99967.34;;;4.82;100.00
71195;BME280;58908;51.426;7.714;2023-01-10T07:26:53;99956.03;;;4.83;100.00
71195;BME280;58908;51.426;7.714;2023-01-10T07:29:19;99953.47;;;4.80;100.00
71195;BME280;58908;51.426;7.714;2023-01-10T07:31:45;99958.69;;;4.82;100.00
71195;BME280;58908;51.426;7.714;2023-01-10T07:34:13;99967.41;;;4.81;100.00
71195;BME280;58908;51.426;7.714;2023-01-10T07:36:39;99965.66;;;4.81;100.00
71195;BME280;58908;51.426;7.714;2023-01-10T07:39:05;99972.66;;;4.81;100.00
71195;BME280;58908;51.426;7.714;2023-01-10T07:41:32;99974.34;;;4.82;100.00
71195;BME280;58908;51.426;7.714;2023-01-10T07:43:58;99984.69;;;4.85;100.00
71195;BME280;58908;51.426;7.714;2023-01-10T07:46:24;99983.88;;;4.84;100.00
71195;BME280;58908;51.426;7.714;2023-01-10T07:48:50;99984.78;;;4.83;100.00
71195;BME280;58908;51.426;7.714;2023-01-10T07:51:18;99993.47;;;4.82;100.00
71195;BME280;58908;51.426;7.714;2023-01-10T07:53:44;99989.13;;;4.83;100.00
71195;BME280;58908;51.426;7.714;2023-01-10T07:56:11;99986.47;;;4.84;100.00
71195;BME280;58908;51.426;7.714;2023-01-10T07:58:37;99996.03;;;4.85;100.00
71195;BME280;58908;51.426;7.714;2023-01-10T08:01:04;100006.47;;;4.85;100.00
71195;BME280;58908;51.426;7.714;2023-01-10T08:03:31;100006.41;;;4.87;100.00
71195;BME280;58908;51.426;7.714;2023-01-10T08:05:58;100014.25;;;4.87;100.00
71195;BME280;58908;51.426;7.714;2023-01-10T08:08:26;100011.59;;;4.88;100.00
71195;BME280;58908;51.426;7.714;2023-01-10T08:10:52;100015.13;;;4.87;100.00
71195;BME280;58908;51.426;7.714;2023-01-10T08:13:19;100025.53;;;4.89;100.00
71195;BME280;58908;51.426;7.714;2023-01-10T08:15:45;100017.72;;;4.89;100.00
71195;BME280;58908;51.426;7.714;2023-01-10T08:18:14;100027.19;;;4.91;100.00
71195;BME280;58908;51.426;7.714;2023-01-10T08:20:40;100023.66;;;4.92;100.00
71195;BME280;58908;51.426;7.714;2023-01-10T08:23:07;100022.75;;;4.93;100.00
71195;BME280;58908;51.426;7.714;2023-01-10T08:25:34;100028.91;;;4.92;100.00
71195;BME280;58908;51.426;7.714;2023-01-10T08:28:00;100032.28;;;4.96;100.00
71195;BME280;58908;51.426;7.714;2023-01-10T08:30:27;100029.56;;;4.99;100.00
71195;BME280;58908;51.426;7.714;2023-01-10T08:32:53;100032.94;;;5.02;100.00
71195;BME280;58908;51.426;7.714;2023-01-10T08:35:19;100037.38;;;5.00;100.00
71195;BME280;58908;51.426;7.714;2023-01-10T08:37:46;100027.69;;;5.04;100.00
71195;BME280;58908;51.426;7.714;2023-01-10T08:40:12;100038.03;;;5.07;100.00
71195;BME280;58908;51.426;7.714;2023-01-10T08:42:39;100038.03;;;5.07;100.00
71195;BME280;58908;51.426;7.714;2023-01-10T08:45:06;100042.44;;;5.06;100.00
71195;BME280;58908;51.426;7.714;2023-01-10T08:47:33;100039.72;;;5.09;100.00
71195;BME280;58908;51.426;7.714;2023-01-10T08:49:59;100040.53;;;5.10;100.00
71195;BME280;58908;51.426;7.714;2023-01-10T08:52:26;100030.16;;;5.08;100.00
71195;BME280;58908;51.426;7.714;2023-01-10T08:54:52;100044.16;;;5.06;100.00
71195;BME280;58908;51.426;7.714;2023-01-10T08:57:19;100047.66;;;5.06;100.00
71195;BME280;58908;51.426;7.714;2023-01-10T08:59:46;100038.81;;;5.10;100.00
71195;BME280;58908;51.426;7.714;2023-01-10T09:02:13;100041.31;;;5.13;100.00
71195;BME280;58908;51.426;7.714;2023-01-10T09:04:39;100050.03;;;5.14;100.00
71195;BME280;58908;51.426;7.714;2023-01-10T09:07:05;100044.66;;;5.18;100.00
71195;BME280;58908;51.426;7.714;2023-01-10T09:09:32;100061.25;;;5.17;100.00
71195;BME280;58908;51.426;7.714;2023-01-10T09:11:58;100059.38;;;5.21;100.00
71195;BME280;58908;51.426;7.714;2023-01-10T09:14:24;100057.78;;;5.17;100.00
71195;BME280;58908;51.426;7.714;2023-01-10T09:16:52;100055.84;;;5.22;100.00
71195;BME280;58908;51.426;7.714;2023-01-10T09:19:18;100058.28;;;5.28;100.00
71195;BME280;58908;51.426;7.714;2023-01-10T09:21:44;100061.00;;;5.25;100.00
71195;BME280;58908;51.426;7.714;2023-01-10T09:24:10;100061.84;;;5.25;100.00
71195;BME280;58908;51.426;7.714;2023-01-10T09:26:37;100068.09;;;5.21;100.00
71195;BME280;58908;51.426;7.714;2023-01-10T09:29:03;100066.25;;;5.25;100.00
71195;BME280;58908;51.426;7.714;2023-01-10T09:31:29;100072.25;;;5.28;100.00
71195;BME280;58908;51.426;7.714;2023-01-10T09:33:57;100072.97;;;5.32;100.00
71195;BME280;58908;51.426;7.714;2023-01-10T09:36:23;100064.97;;;5.38;100.00
71195;BME280;58908;51.426;7.714;2023-01-10T09:38:49;100064.59;;;5.48;100.00
71195;BME280;58908;51.426;7.714;2023-01-10T09:41:18;100066.25;;;5.52;100.00
71195;BME280;58908;51.426;7.714;2023-01-10T09:43:50;100076.19;;;5.41;100.00
71195;BME280;58908;51.426;7.714;2023-01-10T09:46:21;100081.31;;;5.44;100.00
71195;BME280;58908;51.426;7.714;2023-01-10T09:48:52;100087.34;;;5.46;100.00
71195;BME280;58908;51.426;7.714;2023-01-10T09:51:25;100081.81;;;5.55;100.00
71195;BME280;58908;51.426;7.714;2023-01-10T09:53:54;100090.09;;;5.42;100.00
71195;BME280;58908;51.426;7.714;2023-01-10T09:56:23;100088.25;;;5.45;100.00
71195;BME280;58908;51.426;7.714;2023-01-10T09:58:50;100090.06;;;5.43;100.00
71195;BME280;58908;51.426;7.714;2023-01-10T10:01:17;100099.59;;;5.46;100.00
71195;BME280;58908;51.426;7.714;2023-01-10T10:03:45;100096.09;;;5.45;100.00
71195;BME280;58908;51.426;7.714;2023-01-10T10:06:13;100100.31;;;5.49;100.00
71195;BME280;58908;51.426;7.714;2023-01-10T10:08:42;100092.91;;;5.63;100.00
71195;BME280;58908;51.426;7.714;2023-01-10T10:11:14;100087.81;;;5.59;100.00
71195;BME280;58908;51.426;7.714;2023-01-10T10:13:47;100089.25;;;5.69;100.00
71195;BME280;58908;51.426;7.714;2023-01-10T10:16:22;100093.34;;;5.76;100.00
71195;BME280;58908;51.426;7.714;2023-01-10T10:18:53;100097.13;;;5.67;100.00
71195;BME280;58908;51.426;7.714;2023-01-10T10:21:24;100092.34;;;5.81;100.00
71195;BME280;58908;51.426;7.714;2023-01-10T10:23:58;100087.41;;;5.98;100.00
71195;BME280;58908;51.426;7.714;2023-01-10T10:26:32;100088.97;;;6.04;100.00
71195;BME280;58908;51.426;7.714;2023-01-10T10:31:48;100078.03;;;6.17;100.00
71195;BME280;58908;51.426;7.714;2023-01-10T10:34:23;100065.91;;;6.15;100.00
71195;BME280;58908;51.426;7.714;2023-01-10T10:36:51;100072.94;;;6.13;100.00
71195;BME280;58908;51.426;7.714;2023-01-10T10:39:21;100069.13;;;6.23;100.00
71195;BME280;58908;51.426;7.714;2023-01-10T10:41:49;100062.22;;;6.20;100.00
71195;BME280;58908;51.426;7.714;2023-01-10T10:44:21;100062.81;;;6.28;100.00
71195;BME280;58908;51.426;7.714;2023-01-10T10:46:52;100062.31;;;6.17;100.00
71195;BME280;58908;51.426;7.714;2023-01-10T10:49:20;100054.66;;;6.11;100.00
71195;BME280;58908;51.426;7.714;2023-01-10T10:51:49;100060.38;;;6.22;100.00
71195;BME280;58908;51.426;7.714;2023-01-10T10:54:16;100060.22;;;6.27;100.00
71195;BME280;58908;51.426;7.714;2023-01-10T10:56:44;100068.78;;;6.32;100.00
71195;BME280;58908;51.426;7.714;2023-01-10T10:59:11;100065.78;;;6.18;100.00
71195;BME280;58908;51.426;7.714;2023-01-10T11:01:42;100057.94;;;6.18;100.00
71195;BME280;58908;51.426;7.714;2023-01-10T11:04:12;100052.97;;;6.10;100.00
71195;BME280;58908;51.426;7.714;2023-01-10T11:06:40;100048.06;;;6.00;100.00
71195;BME280;58908;51.426;7.714;2023-01-10T11:09:13;100046.91;;;6.08;100.00
71195;BME280;58908;51.426;7.714;2023-01-10T11:11:42;100047.84;;;6.07;100.00
71195;BME280;58908;51.426;7.714;2023-01-10T11:14:10;100042.16;;;6.19;100.00
71195;BME280;58908;51.426;7.714;2023-01-10T11:16:38;100043.59;;;6.28;100.00
71195;BME280;58908;51.426;7.714;2023-01-10T11:19:08;100041.94;;;6.25;100.00
71195;BME280;58908;51.426;7.714;2023-01-10T11:21:35;100047.25;;;6.24;100.00
71195;BME280;58908;51.426;7.714;2023-01-10T11:24:03;100042.09;;;6.21;100.00
71195;BME280;58908;51.426;7.714;2023-01-10T11:26:30;100040.78;;;6.34;100.00
71195;BME280;58908;51.426;7.714;2023-01-10T11:29:03;100036.50;;;6.31;100.00
71195;BME280;58908;51.426;7.714;2023-01-10T11:31:32;100041.56;;;6.36;100.00
71195;BME280;58908;51.426;7.714;2023-01-10T11:33:59;100029.59;;;6.29;100.00
71195;BME280;58908;51.426;7.714;2023-01-10T11:36:29;100033.00;;;6.31;100.00
71195;BME280;58908;51.426;7.714;2023-01-10T11:39:15;100024.94;;;6.37;100.00
71195;BME280;58908;51.426;7.714;2023-01-10T11:41:42;100031.19;;;6.33;100.00
71195;BME280;58908;51.426;7.714;2023-01-10T11:44:15;100038.16;;;6.34;100.00
71195;BME280;58908;51.426;7.714;2023-01-10T11:46:43;100020.97;;;6.50;100.00
71195;BME280;58908;51.426;7.714;2023-01-10T11:49:10;100032.94;;;6.57;100.00
71195;BME280;58908;51.426;7.714;2023-01-10T11:51:44;100021.25;;;6.42;100.00
71195;BME280;58908;51.426;7.714;2023-01-10T11:54:13;100030.66;;;6.48;100.00
71195;BME280;58908;51.426;7.714;2023-01-10T11:56:41;100026.50;;;6.42;100.00
71195;BME280;58908;51.426;7.714;2023-01-10T11:59:08;100018.50;;;6.45;100.00
71195;BME280;58908;51.426;7.714;2023-01-10T12:01:37;100024.53;;;6.47;100.00
71195;BME280;58908;51.426;7.714;2023-01-10T12:04:06;100017.75;;;6.42;100.00
71195;BME280;58908;51.426;7.714;2023-01-10T12:06:41;100012.50;;;6.42;100.00
71195;BME280;58908;51.426;7.714;2023-01-10T12:09:11;100001.94;;;6.45;100.00
71195;BME280;58908;51.426;7.714;2023-01-10T12:12:00;100003.69;;;6.44;100.00
71195;BME280;58908;51.426;7.714;2023-01-10T12:14:26;100003.50;;;6.50;100.00
71195;BME280;58908;51.426;7.714;2023-01-10T12:16:57;99994.09;;;6.45;100.00
71195;BME280;58908;51.426;7.714;2023-01-10T12:19:25;99992.25;;;6.47;100.00
71195;BME280;58908;51.426;7.714;2023-01-10T12:21:52;99990.38;;;6.50;100.00
71195;BME280;58908;51.426;7.714;2023-01-10T12:24:20;100000.91;;;6.49;100.00
71195;BME280;58908;51.426;7.714;2023-01-10T12:26:48;100001.75;;;6.49;100.00
71195;BME280;58908;51.426;7.714;2023-01-10T12:29:18;100002.50;;;6.53;100.00
71195;BME280;58908;51.426;7.714;2023-01-10T12:31:46;100003.50;;;6.50;100.00
71195;BME280;58908;51.426;7.714;2023-01-10T12:34:15;99992.13;;;6.50;100.00
71195;BME280;58908;51.426;7.714;2023-01-10T12:36:49;99993.06;;;6.49;100.00
71195;BME280;58908;51.426;7.714;2023-01-10T12:39:20;100003.25;;;6.56;100.00
71195;BME280;58908;51.426;7.714;2023-01-10T12:44:49;100005.91;;;6.55;100.00
71195;BME280;58908;51.426;7.714;2023-01-10T12:47:23;99998.88;;;6.57;100.00
71195;BME280;58908;51.426;7.714;2023-01-10T12:49:54;99987.66;;;6.53;100.00
71195;BME280;58908;51.426;7.714;2023-01-10T12:52:31;100000.63;;;6.56;100.00
71195;BME280;58908;51.426;7.714;2023-01-10T12:54:58;99995.44;;;6.55;100.00
71195;BME280;58908;51.426;7.714;2023-01-10T12:57:27;99997.25;;;6.53;100.00
71195;BME280;58908;51.426;7.714;2023-01-10T12:59:55;99985.88;;;6.54;100.00
71195;BME280;58908;51.426;7.714;2023-01-10T13:02:24;99987.78;;;6.50;100.00
71195;BME280;58908;51.426;7.714;2023-01-10T13:04:52;99984.09;;;6.54;100.00
71195;BME280;58908;51.426;7.714;2023-01-10T13:07:19;99971.22;;;6.48;100.00
71195;BME280;58908;51.426;7.714;2023-01-10T13:09:47;99975.38;;;6.54;100.00